Wilkinson, Indiana
Current Conditions -  °F | °C
As of 9:35 AM on Sunday 23 Nov 2014 (Local Time) from KMQJ Reporting Station
Clear Clear  
Wind Chill: 50°   Ceiling: Unl
Heat Index: 50°   Visibility: 10mi
Dew Point: 36°   Wind: 10mph
Humidity: 58%   Direction: 180°S
Pressure: 29.89"   Gusts: NA
Location:  39.89°N, 85.61°W
Report Text: KMQJ 231435Z AUTO 18009KT 10SM CLR 10/02 A2989 RMK AO1
Loading
Personal Weather Stations






























Interactive Weather Map New forecast layout! Learn more

10-Day Weather Forecast

Advertisements
Track Severe Weather on mobile